ADDS METAR Data INFO
IDs: Format: Raw Decoded Include TAF

Data at: 1517 UTC 21 Feb 2018

KDUH 211435Z AUTO 34007KT 10SM -RA SCT013 OVC031 03/02 A3036 RMK AO2 T00320015
KDUH 211415Z AUTO 34007KT 10SM -RA SCT013 OVC029 04/02 A3035 RMK AO2 T00350021
KDUH 211355Z AUTO 33007G14KT 7SM -RA BKN015 OVC025 04/02 A3034 RMK AO2 T00350020
KDUH 211335Z AUTO 34010G16KT 10SM -RA SCT011 BKN018 OVC025 04/02 A3032 RMK AO2 T00360022
KDUH 211315Z AUTO 33006G15KT 7SM -RA BKN011 OVC015 04/03 A3029 RMK AO2 T00400030
KDUH 211255Z AUTO 33009KT 7SM -RA BKN011 OVC023 04/03 A3028 RMK AO2 T00420030
KDUH 201515Z AUTO 20007KT 7SM -DZ SCT030 BKN035 OVC043 16/14 A3000 RMK AO2 T01560140
KDUH 201455Z AUTO 21013G18KT 5SM RA SCT021 BKN039 OVC065 16/14 A3000 RMK AO2 T01560138
KDUH 201435Z AUTO 20013G20KT 5SM +RA SCT020 BKN070 OVC080 16/14 A3000 RMK AO2 T01600135
KDUH 201415Z AUTO 20013G20KT 10SM +RA SCT041 BKN070 OVC110 17/13 A3000 RMK AO2 T01670132
KDUH 201355Z AUTO 21012G17KT 10SM SCT040 SCT080 OVC100 17/13 A3000 RMK AO2 T01670131
KDUH 201335Z AUTO 20010G18KT 10SM BKN080 OVC100 17/13 A2999 RMK AO2 T01650130
KDUH 201315Z AUTO 20013G18KT 10SM SCT090 BKN100 OVC120 16/13 A2999 RMK AO2 T01640130
KDUH 201255Z AUTO 20010G17KT 10SM BKN120 16/13 A2998 RMK AO2 T01610128
KDUH 201235Z AUTO 20011G18KT 10SM SCT090 SCT120 16/13 A2998 RMK AO2 T01600127
KDUH 201215Z AUTO 20010KT 170V250 10SM SCT080 OVC110 16/13 A2999 RMK AO2 T01590127
KDUH 201155Z AUTO 20007G15KT 10SM SCT060 SCT065 OVC110 16/13 A2998 RMK AO2 T01600127 10162 20140
KDUH 201135Z AUTO 20010G17KT 170V230 10SM SCT050 BKN075 OVC085 16/13 A2998 RMK AO2 T01590127
KDUH 201115Z AUTO 20009G17KT 10SM OVC095 16/13 A2998 RMK AO2 T01590127
KDUH 201055Z AUTO 20009KT 10SM OVC095 16/13 A2997 RMK AO2 T01560127
KDUH 201035Z AUTO 20008KT 10SM SCT065 BKN080 OVC095 16/13 A2998 RMK AO2 T01560128
KDUH 201015Z AUTO 21012KT 10SM RA SCT032 BKN060 OVC100 16/13 A2998 RMK AO2 T01600125
KDUH 200955Z AUTO 21007G15KT 10SM BKN032 BKN046 OVC050 16/13 A2997 RMK AO2 T01620125
KDUH 200935Z AUTO 21010G17KT 10SM SCT034 OVC045 16/13 A2997 RMK AO2 T01610125
KDUH 200915Z AUTO 21011G17KT 10SM BKN043 OVC050 16/12 A2996 RMK AO2 T01600124
KDUH 200855Z AUTO 21010G17KT 10SM BKN045 OVC075 16/12 A2996 RMK AO2 T01590122
KDUH 200835Z AUTO 21009G18KT 10SM SCT045 BKN070 OVC075 16/12 A2996 RMK AO2 T01580122
KDUH 200815Z AUTO 21011G16KT 10SM OVC065 16/12 A2996 RMK AO2 T01570121
KDUH 200755Z AUTO 20008G14KT 170V230 10SM OVC065 15/12 A2996 RMK AO2 T01530121
KDUH 200735Z AUTO 19010G15KT 10SM SCT047 OVC065 16/12 A2996 RMK AO2 T01550118
KDUH 200715Z AUTO 20007KT 10SM SCT049 OVC065 15/12 A2997 RMK AO2 T01510118
KDUH 200655Z AUTO 20007G15KT 10SM SCT047 OVC055 15/12 A2998 RMK AO2 T01490120
KDUH 200635Z AUTO 19006KT 10SM BKN060 OVC065 15/12 A2997 RMK AO2 T01450121
KDUH 200615Z AUTO 20008KT 10SM BKN070 OVC080 14/13 A2997 RMK AO2 T01430125
KDUH 200555Z AUTO 20005KT 10SM SCT070 OVC090 14/13 A2997 RMK AO2 T01400126 10158 20135 401580005
KDUH 200535Z AUTO 20004KT 10SM BKN090 OVC110 14/13 A2997 RMK AO2 T01380126
KDUH 200515Z AUTO 19004KT 10SM SCT100 SCT120 14/13 A2997 RMK AO2 T01360126
KDUH 200455Z AUTO 20004KT 7SM CLR 14/13 A2996 RMK AO2 T01350125
KDUH 200435Z AUTO 21003KT 10SM SCT120 14/13 A2997 RMK AO2 T01360125
KDUH 200415Z AUTO 21004KT 10SM CLR 14/13 A2996 RMK AO2 T01400128
KDUH 200355Z AUTO 20006KT 10SM CLR 14/13 A2996 RMK AO2 T01430130
KDUH 200335Z AUTO 22008KT 10SM SCT100 SCT120 14/13 A2995 RMK AO2 T01430131